Latest Weather Observations for Argyle

IDD60801

Issued at 5:01 pm CST Sunday 30 August 2015 (issued every 30 minutes, with the page automatically refreshed every 10 minutes)

About weather observations | Map of weather stations | Latest weather observations for NT | Other Formats
Station Details ID: 002064 Name: ARGYLE AERODROME Lat: -16.64 Lon: 128.45 Height: 164.0 m
Data from the previous 72 hours. | See also: Recent months at Argyle
Date/Time
CST
Temp
°C
App
Temp
°C
Dew
Point
Rel
Hum
%
Delta-T
°C
Wind Press
QNH
hPa
Press
MSL
hPa
Rain
since 9 am
mm
Dir
 
Spd
km/h
Gust
km/h
Spd
kts
Gust
kts
30/04:30pm 32.4 30.0 11.3 27 12.4 N 15 24 8 13 1014.3 1013.4 0.0
30/04:00pm 32.3 30.1 12.1 29 12.0 N 15 24 8 13 1014.4 - 0.0
30/03:30pm 32.5 30.3 12.2 29 12.1 NE 15 26 8 14 1014.7 - 0.0
30/03:00pm 31.7 29.5 12.1 30 11.6 NNE 15 20 8 11 1015.0 - 0.0
30/02:30pm 31.5 30.1 12.1 30 11.5 NNE 11 22 6 12 1015.4 - 0.0
30/02:00pm 31.4 30.2 12.9 32 11.1 E 11 20 6 11 1015.9 - 0.0
30/01:30pm 30.7 28.8 13.0 33 10.6 NE 15 24 8 13 1016.5 1015.6 0.0
30/01:00pm 30.9 29.2 13.5 34 10.5 NNE 15 24 8 13 1017.1 - 0.0
30/12:30pm 29.9 29.2 14.3 38 9.5 NE 11 17 6 9 1017.8 - 0.0
30/12:00pm 29.4 28.2 14.0 39 9.3 ESE 13 22 7 12 1018.4 - 0.0
30/11:30am 28.1 27.3 14.1 42 8.4 ENE 11 17 6 9 1019.0 - 0.0
30/11:00am 27.4 26.3 14.3 44 7.9 ENE 13 20 7 11 1019.4 - 0.0
30/10:30am 27.5 25.5 14.0 43 8.1 E 17 22 9 12 1019.5 1018.6 0.0
30/10:00am 27.0 24.7 14.1 45 7.7 ENE 19 24 10 13 1019.5 - 0.0
30/09:30am 26.3 26.7 15.3 50 6.7 E 7 13 4 7 1019.4 - 0.0
30/09:00am 25.3 26.0 15.6 55 5.9 E 6 7 3 4 1019.1 - 0.0
30/08:30am 24.2 24.8 15.8 59 5.1 NE 7 9 4 5 1018.8 - 0.0
30/08:00am 23.3 25.5 16.6 66 4.1 CALM 0 0 0 0 1018.3 - 0.0
30/07:30am 22.1 23.3 16.9 72 3.2 W 6 7 3 4 1017.8 1017.0 0.0
30/07:00am 21.4 22.4 16.8 75 2.8 W 7 7 4 4 1017.2 - 0.0
30/06:30am 21.7 23.9 17.5 77 2.6 SW 2 6 1 3 1016.9 - 0.0
30/06:00am 22.2 23.5 17.0 72 3.2 WNW 6 7 3 4 1016.7 - 0.0
30/05:30am 22.0 23.0 16.8 72 3.2 W 7 9 4 5 1016.5 - 0.0
30/05:00am 22.3 23.5 16.9 71 3.3 NNW 6 9 3 5 1016.1 - 0.0
30/04:30am 23.1 23.9 16.4 66 4.1 NNE 7 9 4 5 1016.0 1015.1 0.0
30/04:00am 22.6 23.8 16.9 70 3.5 E 6 9 3 5 1016.1 - 0.0
30/03:30am 22.7 24.0 17.2 71 3.4 ENE 6 7 3 4 1016.1 - 0.0
30/03:00am 22.9 24.0 17.1 70 3.6 E 7 9 4 5 1016.3 - 0.0
30/02:30am 23.4 24.0 16.9 67 4.0 E 9 11 5 6 1016.4 - 0.0
30/02:00am 23.4 24.7 17.1 67 3.9 ESE 6 7 3 4 1016.6 - 0.0
30/01:30am 24.0 26.1 17.3 66 4.2 S 2 6 1 3 1016.7 1015.8 0.0
30/01:00am 24.1 26.8 17.7 67 4.0 CALM 0 0 0 0 1016.8 - 0.0
30/12:30am 24.3 26.7 18.0 68 4.0 WNW 2 6 1 3 1017.1 - 0.0
30/12:00am 24.4 25.9 17.7 66 4.2 NNW 6 7 3 4 1017.2 - 0.0
 
Date/Time
CST
Temp
°C
App
Temp
°C
Dew
Point
Rel
Hum
%
Delta-T
°C
Wind Press
QNH
hPa
Press
MSL
hPa
Rain
since 9 am
mm
Dir
 
Spd
km/h
Gust
km/h
Spd
kts
Gust
kts
29/11:30pm 25.1 25.9 17.3 62 4.9 N 9 11 5 6 1017.2 - 0.0
29/11:00pm 25.0 26.3 17.5 63 4.7 N 7 9 4 5 1017.4 - 0.0
29/10:30pm 25.5 26.2 17.0 59 5.3 N 9 13 5 7 1017.4 1016.6 0.0
29/10:00pm 25.5 26.6 17.2 60 5.2 NE 7 11 4 6 1017.2 - 0.0
29/09:30pm 25.7 27.0 17.1 59 5.4 E 6 9 3 5 1017.1 - 0.0
29/09:00pm 26.2 26.3 16.5 55 6.0 E 11 13 6 7 1016.8 - 0.0
29/08:30pm 26.6 26.7 16.6 54 6.2 E 11 15 6 8 1016.4 - 0.0
29/08:00pm 26.9 28.0 17.2 55 6.1 ENE 7 9 4 5 1016.1 - 0.0
29/07:30pm 27.4 28.3 16.5 51 6.8 E 7 9 4 5 1015.6 1014.7 0.0
29/07:00pm 28.0 27.9 15.9 47 7.5 E 11 17 6 9 1015.4 - 0.0
29/06:30pm 28.9 28.9 16.2 46 7.9 E 11 17 6 9 1015.2 - 0.0
29/06:00pm 29.4 29.5 16.5 45 8.1 ESE 11 15 6 8 1015.0 - 0.0
29/05:30pm 29.9 30.0 16.4 44 8.5 ESE 11 17 6 9 1014.9 - 0.0
29/05:00pm 29.8 30.1 17.0 46 8.1 ESE 11 17 6 9 1014.8 - 0.0
29/04:30pm 29.5 29.6 16.4 45 8.2 ESE 11 17 6 9 1014.8 1013.9 0.0
29/04:00pm 30.2 29.8 16.3 43 8.7 ESE 13 20 7 11 1015.0 - 0.0
29/03:30pm 29.4 29.5 16.5 45 8.1 ESE 11 17 6 9 1015.3 - 0.0
29/03:00pm 29.7 30.3 16.7 45 8.2 E 9 19 5 10 1015.8 - 0.0
29/02:30pm 28.7 29.5 16.4 47 7.7 ESE 7 13 4 7 1016.3 - 0.0
29/02:00pm 28.1 27.8 16.4 49 7.3 ESE 13 22 7 12 1016.8 - 0.0
29/01:30pm 27.9 28.3 16.3 49 7.2 ENE 9 17 5 9 1017.5 1016.7 0.0
29/01:00pm 27.0 27.6 16.9 54 6.3 ESE 9 20 5 11 1018.1 - 0.0
29/12:30pm 25.7 26.8 17.0 58 5.4 ENE 7 15 4 8 1018.9 - 0.0
29/12:00pm 25.7 26.8 17.2 59 5.3 E 7 17 4 9 1019.3 - 0.0
29/11:30am 23.9 24.2 17.0 65 4.3 E 11 15 6 8 1020.1 - 0.0
29/11:00am 23.7 23.6 16.9 65 4.2 ESE 13 20 7 11 1020.4 - 0.0
29/10:30am 22.9 22.2 16.5 67 3.9 E 15 20 8 11 1020.5 1019.6 3.0
29/10:00am 22.5 21.0 16.4 68 3.7 E 19 26 10 14 1020.5 - 3.0
29/09:30am 22.3 21.9 17.1 72 3.2 E 15 20 8 11 1020.4 - 3.0
29/09:05am 21.9 22.2 17.9 78 2.5 E 13 17 7 9 1020.1 - 3.0
29/09:00am 21.6 21.5 17.9 79 2.3 E 15 19 8 10 1020.0 - 3.0
29/08:30am 20.5 21.7 18.3 87 1.4 SE 9 13 5 7 1019.8 - 3.0
29/08:00am 20.3 21.6 18.5 89 1.1 SE 9 13 5 7 1019.3 - 3.0
29/07:30am 20.6 22.1 18.9 90 1.1 SE 9 15 5 8 1018.7 1017.8 3.0
29/07:06am 20.8 22.4 19.2 90 1.0 ESE 9 13 5 7 1018.3 - 3.0
29/07:00am 20.9 22.5 19.2 90 1.1 ESE 9 13 5 7 1018.1 - 3.0
29/06:30am 21.1 22.8 19.4 90 1.1 SE 9 13 5 7 1017.8 - 3.0
29/06:23am 21.1 22.9 19.5 90 1.0 ESE 9 11 5 6 1017.7 - 3.0
29/06:00am 21.3 22.7 19.6 90 1.1 SE 11 17 6 9 1017.4 - 3.0
29/05:45am 21.5 23.5 19.9 91 1.0 SE 9 13 5 7 1017.4 - 3.0
29/05:30am 21.6 23.8 20.4 93 0.8 E 9 13 5 7 1017.2 - 3.0
29/05:00am 21.8 23.2 20.4 92 0.9 E 13 17 7 9 1017.3 - 3.0
29/04:30am 22.0 23.8 20.3 90 1.1 ESE 11 15 6 8 1017.3 1016.5 3.0
29/04:00am 22.1 24.4 20.6 91 1.0 E 9 13 5 7 1017.1 - 3.0
29/03:30am 22.1 24.5 20.9 93 0.8 ESE 9 15 5 8 1017.1 - 3.0
29/03:00am 22.2 24.2 20.7 91 1.0 SE 11 17 6 9 1017.1 - 3.0
29/02:30am 22.5 24.4 20.5 88 1.3 SE 11 15 6 8 1016.9 - 3.0
29/02:00am 23.5 23.3 19.3 77 2.7 SE 19 28 10 15 1017.2 - 2.8
29/01:30am 23.6 24.8 19.9 80 2.4 ESE 13 17 7 9 1017.4 1016.6 2.8
29/01:00am 25.3 26.5 19.8 71 3.6 N 13 22 7 12 1017.0 - 2.6
29/12:30am 26.3 27.5 18.3 61 5.1 ESE 9 13 5 7 1016.1 - 2.2
29/12:00am 26.2 27.6 17.8 60 5.3 ESE 7 9 4 5 1016.2 - 2.2
 
Date/Time
CST
Temp
°C
App
Temp
°C
Dew
Point
Rel
Hum
%
Delta-T
°C
Wind Press
QNH
hPa
Press
MSL
hPa
Rain
since 9 am
mm
Dir
 
Spd
km/h
Gust
km/h
Spd
kts
Gust
kts
28/11:30pm 26.6 27.5 17.6 57 5.7 ESE 9 11 5 6 1016.2 - 2.2
28/11:00pm 26.9 27.7 17.4 56 6.0 SE 9 13 5 7 1016.1 - 2.2
28/10:30pm 27.2 29.6 18.8 60 5.4 N 4 7 2 4 1016.0 1015.1 2.2
28/10:00pm 27.8 29.1 18.5 57 6.0 NNW 9 11 5 6 1015.7 - 2.2
28/09:30pm 27.3 29.3 18.8 59 5.5 SSE 6 7 3 4 1015.3 - 2.2
28/09:00pm 28.0 31.8 20.1 62 5.2 CALM 0 0 0 0 1014.9 - 2.2
28/08:30pm 28.3 31.8 19.6 59 5.7 CALM 0 0 0 0 1014.5 - 2.2
28/08:00pm 28.4 30.3 18.6 55 6.3 ENE 6 11 3 6 1014.1 - 2.2
28/07:30pm 28.6 30.4 18.7 55 6.4 NE 7 11 4 6 1013.6 1012.7 2.2
28/07:00pm 28.4 30.8 19.7 59 5.7 E 6 9 3 5 1013.2 - 2.2
28/06:30pm 28.1 31.0 21.1 65 4.7 ESE 7 9 4 5 1013.0 - 2.2
28/06:00pm 27.9 30.1 20.3 63 5.0 ENE 9 11 5 6 1012.7 - 2.2
28/05:30pm 28.3 28.9 18.7 56 6.2 ESE 13 19 7 10 1012.8 - 2.2
28/05:22pm 27.7 27.4 19.1 59 5.6 ESE 19 26 10 14 1012.7 - 2.2
28/05:02pm 27.5 25.1 18.3 57 5.9 NE 28 61 15 33 1012.6 - 1.0
28/05:00pm 30.0 33.0 21.2 59 5.9 ESE 7 15 4 8 1012.8 - 0.6
28/04:30pm 32.5 32.2 14.5 33 11.1 E 9 15 5 8 1012.5 1011.6 0.0
28/04:00pm 32.8 32.9 14.5 33 11.3 NW 7 17 4 9 1012.8 - 0.0
28/03:30pm 33.5 31.5 14.0 30 12.0 N 17 20 9 11 1013.0 - 0.0
28/03:00pm 33.3 33.5 14.8 32 11.5 N 7 17 4 9 1013.6 - 0.0
28/02:30pm 32.0 30.9 14.4 34 10.8 ENE 13 20 7 11 1014.0 - 0.0
28/02:00pm 31.6 31.0 14.7 36 10.4 ENE 11 20 6 11 1014.8 - 0.0
28/01:30pm 31.6 30.7 14.9 36 10.3 NE 13 24 7 13 1015.3 1014.4 0.0
28/01:00pm 31.3 29.8 15.2 37 10.0 NNE 17 22 9 12 1015.8 - 0.0
28/12:30pm 30.6 30.1 15.0 38 9.6 N 11 22 6 12 1016.3 - 0.0
28/12:00pm 30.3 29.6 15.5 40 9.2 NE 13 22 7 12 1017.0 - 0.0
28/11:30am 29.7 29.4 15.5 42 8.8 ENE 11 20 6 11 1017.5 - 0.0
28/11:00am 29.0 28.6 15.1 42 8.5 NE 11 17 6 9 1017.9 - 0.0
28/10:30am 28.5 28.6 15.5 45 8.0 ENE 9 17 5 9 1018.3 1017.5 0.0
28/10:00am 27.2 26.9 15.4 48 7.2 ENE 11 17 6 9 1018.5 - 0.0
28/09:30am 26.9 26.2 15.5 49 7.0 ENE 13 20 7 11 1018.4 - 0.0
28/09:00am 26.4 25.5 15.8 52 6.5 E 15 22 8 12 1018.1 - 0.0
28/08:30am 25.5 25.1 16.2 56 5.7 E 13 20 7 11 1017.9 - 0.0
28/08:00am 24.8 26.1 17.6 64 4.5 SE 7 11 4 6 1017.5 - 0.0
28/07:30am 23.6 26.4 18.0 71 3.5 CALM 0 6 0 3 1016.9 1016.0 0.0
28/07:00am 23.5 26.3 17.9 71 3.5 CALM 0 0 0 0 1016.5 - 0.0
28/06:30am 23.2 26.1 18.1 73 3.2 CALM 0 0 0 0 1016.1 - 0.0
28/06:00am 23.6 26.4 18.0 71 3.5 CALM 0 6 0 3 1015.8 - 0.0
28/05:30am 23.7 24.7 17.8 69 3.7 ESE 9 11 5 6 1015.5 - 0.0
28/04:30am 24.7 24.4 17.3 63 4.6 SE 15 20 8 11 1015.3 1014.4 0.0
28/04:00am 25.3 24.2 16.4 57 5.5 ESE 17 26 9 14 1015.2 - 0.0
28/03:30am 25.9 25.0 15.8 53 6.2 SE 15 20 8 11 1015.2 - 0.0
28/03:00am 26.1 25.1 15.6 52 6.4 SE 15 20 8 11 1015.2 - 0.0
28/02:30am 26.2 27.9 17.1 57 5.7 ESE 4 9 2 5 1015.2 - 0.0
28/01:30am 28.1 28.7 16.8 50 7.1 N 9 15 5 8 1015.4 1014.5 0.0
28/01:00am 28.3 28.5 16.7 49 7.3 NNW 11 13 6 7 1015.5 - 0.0
28/12:30am 27.9 28.6 17.1 51 6.8 NNW 9 11 5 6 1015.6 - 0.0
28/12:00am 28.2 28.1 16.9 50 7.1 NW 13 19 7 10 1015.4 - 0.0
 
Date/Time
CST
Temp
°C
App
Temp
°C
Dew
Point
Rel
Hum
%
Delta-T
°C
Wind Press
QNH
hPa
Press
MSL
hPa
Rain
since 9 am
mm
Dir
 
Spd
km/h
Gust
km/h
Spd
kts
Gust
kts
27/11:30pm 28.7 28.7 17.2 49 7.3 N 13 17 7 9 1015.2 - 0.0
27/11:00pm 28.9 28.1 17.0 48 7.5 N 17 20 9 11 1015.1 - 0.0
27/10:30pm 29.3 28.2 16.4 45 8.1 N 17 20 9 11 1015.0 1014.1 0.0
27/10:00pm 29.2 27.4 14.4 40 9.0 N 17 22 9 12 1014.9 - 0.0
27/09:30pm 29.1 29.0 14.0 39 9.1 NNW 7 7 4 4 1014.7 - 0.0
27/09:00pm 29.8 29.8 14.1 38 9.5 NNE 7 9 4 5 1014.6 - 0.0
27/08:30pm 30.3 29.8 13.8 36 10.0 NE 9 13 5 7 1014.1 - 0.0
27/08:00pm 30.5 30.1 14.0 36 10.0 NNE 9 11 5 6 1013.7 - 0.0
27/07:30pm 31.4 30.5 13.6 33 10.8 NNE 11 15 6 8 1013.4 1012.5 0.0
27/07:00pm 31.9 30.8 12.0 29 11.8 NNE 9 13 5 7 1013.1 - 0.0

Other Formats:

Comma delimited format used in spreadsheet applications
http://www.bom.gov.au/fwo/IDD60801/IDD60801.94217.axf

JavaScript Object Notation format (JSON) in row-major order
http://www.bom.gov.au/fwo/IDD60801/IDD60801.94217.json